Time;durP1;ratioP1;P1;durP2;ratioP2;P2;SDS_P1;SDS_P2;PMS_P1;PMS_P2;Temp;Humidity;BMP_temperature;BMP_pressure;BME280_temperature;BME280_humidity;BME280_pressure;Samples;Min_cycle;Max_cycle;Signal;HPM_P1;HPM_P2
2022/09/09 00:00:12;;;;;;;14.45;8.15;;;21.70;99.90;;;;;;4937962;29;20062;-80
2022/09/09 00:02:38;;;;;;;20.13;8.90;;;21.60;99.90;;;;;;4953726;29;20394;-79
2022/09/09 00:05:27;;;;;;;20.02;9.63;;;21.60;99.90;;;;;;4937921;29;20132;-79
2022/09/09 00:07:55;;;;;;;16.52;9.27;;;21.60;99.90;;;;;;4954422;29;20608;-78
2022/09/09 00:10:31;;;;;;;21.08;10.55;;;21.60;99.90;;;;;;4953968;29;20482;-78
2022/09/09 00:13:24;;;;;;;19.42;9.40;;;21.60;99.90;;;;;;4948725;29;20070;-78
2022/09/09 00:16:13;;;;;;;16.73;10.30;;;21.60;99.90;;;;;;4937962;29;20783;-79
2022/09/09 00:19:03;;;;;;;21.38;11.25;;;21.60;99.90;;;;;;4954303;29;20490;-79
2022/09/09 00:21:38;;;;;;;15.05;9.13;;;21.60;99.90;;;;;;4953982;29;20050;-78
2022/09/09 00:24:44;;;;;;;22.20;10.00;;;21.60;99.90;;;;;;4954172;29;20031;-78
2022/09/09 00:27:18;;;;;;;17.60;10.20;;;21.60;99.90;;;;;;5001397;28;20044;-79
2022/09/09 00:29:53;;;;;;;16.08;10.52;;;21.50;99.90;;;;;;5047185;28;20029;-79
2022/09/09 00:32:20;;;;;;;25.02;10.15;;;21.50;99.90;;;;;;5050190;28;20067;-79
2022/09/09 00:35:03;;;;;;;24.00;9.48;;;21.60;99.90;;;;;;5053474;28;20159;-79
2022/09/09 00:37:34;;;;;;;20.42;9.73;;;21.50;99.90;;;;;;5054117;28;20025;-80
2022/09/09 00:40:16;;;;;;;15.35;10.30;;;21.50;99.90;;;;;;5053918;28;20045;-80
2022/09/09 00:42:43;;;;;;;20.17;11.27;;;21.50;99.90;;;;;;5053350;28;20029;-80
2022/09/09 00:45:42;;;;;;;20.85;11.13;;;21.50;99.90;;;;;;5053276;28;20039;-79
2022/09/09 00:48:16;;;;;;;25.33;11.98;;;21.50;99.90;;;;;;5054223;28;20052;-79
2022/09/09 00:51:10;;;;;;;23.55;11.88;;;21.40;99.90;;;;;;5053250;28;20391;-80
2022/09/09 00:54:03;;;;;;;25.20;12.23;;;21.40;99.90;;;;;;5035495;28;20029;-78
2022/09/09 00:56:42;;;;;;;21.20;11.90;;;21.40;99.90;;;;;;5053738;28;20075;-80
2022/09/09 00:59:16;;;;;;;25.17;11.90;;;21.40;99.90;;;;;;5053661;28;20093;-80
2022/09/09 01:01:42;;;;;;;23.02;11.88;;;21.40;99.90;;;;;;5053144;28;20040;-79
2022/09/09 01:04:20;;;;;;;25.20;12.60;;;21.50;99.90;;;;;;5053284;28;20025;-80
2022/09/09 01:06:56;;;;;;;25.80;11.90;;;21.50;99.90;;;;;;5035675;28;20021;-78
2022/09/09 01:09:21;;;;;;;21.23;11.38;;;21.50;99.90;;;;;;5053096;28;20163;-80
2022/09/09 01:12:05;;;;;;;25.23;12.07;;;21.50;99.90;;;;;;5053354;28;20100;-78
2022/09/09 01:14:34;;;;;;;17.20;10.85;;;21.50;99.90;;;;;;5053319;28;20032;-79
2022/09/09 01:17:22;;;;;;;24.40;11.07;;;21.50;99.90;;;;;;5035479;28;20099;-80
2022/09/09 01:19:59;;;;;;;15.60;10.48;;;21.50;99.90;;;;;;5053727;28;20037;-80
2022/09/09 01:22:55;;;;;;;17.27;9.65;;;21.50;99.90;;;;;;5053175;28;20021;-79
2022/09/09 01:25:27;;;;;;;21.10;9.63;;;21.60;99.90;;;;;;5053550;28;20029;-79
2022/09/09 01:27:56;;;;;;;22.23;10.57;;;21.50;99.90;;;;;;5052896;28;20025;-79
2022/09/09 01:30:23;;;;;;;24.77;11.20;;;21.50;99.90;;;;;;5035141;28;20560;-80
2022/09/09 01:32:53;;;;;;;17.77;10.05;;;21.50;99.90;;;;;;5053015;28;20025;-79
2022/09/09 01:35:45;;;;;;;16.45;10.13;;;21.50;99.90;;;;;;5053596;28;20035;-79
2022/09/09 01:38:11;;;;;;;;;;;21.50;99.90;;;;;;5053241;28;20029;-79
2022/09/09 01:40:37;;;;;;;22.88;9.82;;;21.50;99.90;;;;;;5053229;28;20386;-79
2022/09/09 01:43:03;;;;;;;20.90;9.90;;;21.40;99.90;;;;;;5052271;28;20029;-80
2022/09/09 01:45:30;;;;;;;20.23;10.52;;;21.50;99.90;;;;;;5052979;28;20380;-79
2022/09/09 01:47:56;;;;;;;17.92;9.93;;;21.50;99.90;;;;;;5053217;28;20036;-80
2022/09/09 01:50:23;;;;;;;22.85;10.13;;;21.40;99.90;;;;;;5052581;28;20025;-81
2022/09/09 01:53:01;;;;;;;17.48;11.05;;;21.40;99.90;;;;;;5052869;28;20036;-80
2022/09/09 01:55:36;;;;;;;20.95;10.35;;;21.40;99.90;;;;;;5037311;28;20107;-78
2022/09/09 01:58:13;;;;;;;24.70;11.15;;;21.40;99.90;;;;;;5057513;28;20534;-81
2022/09/09 02:00:54;;;;;;;23.10;9.90;;;21.50;99.90;;;;;;5057010;28;20045;-79
2022/09/09 02:03:26;;;;;;;24.50;10.60;;;21.50;99.90;;;;;;5039234;28;20029;-81
2022/09/09 02:06:00;;;;;;;15.50;10.20;;;21.40;99.90;;;;;;5056275;28;20032;-80
2022/09/09 02:08:35;;;;;;;23.15;11.18;;;21.40;99.90;;;;;;5056377;28;20025;-80
2022/09/09 02:11:06;;;;;;;21.88;11.07;;;21.30;99.90;;;;;;5056079;28;20127;-81
2022/09/09 02:13:35;;;;;;;16.50;9.93;;;;;;;;;;5056861;28;20100;-80
2022/09/09 02:16:22;;;;;;;19.20;9.73;;;21.30;99.90;;;;;;5056580;28;20017;-79
2022/09/09 02:19:08;;;;;;;19.23;10.45;;;21.20;99.90;;;;;;5038759;28;20072;-80
2022/09/09 02:21:37;;;;;;;23.17;10.15;;;21.10;99.90;;;;;;5055813;28;20052;-79
2022/09/09 02:24:08;;;;;;;23.67;10.85;;;21.00;99.90;;;;;;5056819;28;20531;-80
2022/09/09 02:26:41;;;;;;;23.55;11.05;;;20.90;99.90;;;;;;5056949;28;20029;-80
2022/09/09 02:29:19;;;;;;;19.13;10.38;;;20.90;99.90;;;;;;5056605;28;20028;-80
2022/09/09 02:31:48;;;;;;;20.42;10.73;;;20.90;99.90;;;;;;5056767;28;20104;-78
2022/09/09 02:34:18;;;;;;;20.58;11.40;;;20.90;99.90;;;;;;5037667;28;20028;-80
2022/09/09 02:36:45;;;;;;;20.33;11.07;;;20.90;99.90;;;;;;5038256;28;20032;-79
2022/09/09 02:39:12;;;;;;;20.98;10.57;;;20.90;99.90;;;;;;5055601;28;20488;-78
2022/09/09 02:41:40;;;;;;;19.63;10.23;;;20.90;99.90;;;;;;5038101;28;20531;-79
2022/09/09 02:44:16;;;;;;;19.92;10.05;;;20.80;99.90;;;;;;5038710;28;20426;-79
2022/09/09 02:47:10;;;;;;;23.13;10.90;;;20.90;99.90;;;;;;5056426;28;20166;-78
2022/09/09 02:50:20;;;;;;;17.00;10.55;;;20.90;99.90;;;;;;5056124;28;20075;-80
2022/09/09 02:52:51;;;;;;;22.02;9.63;;;20.90;99.90;;;;;;5013444;28;20531;-78
2022/09/09 02:55:27;;;;;;;23.07;11.43;;;20.90;99.90;;;;;;5056045;28;20036;-81
2022/09/09 02:57:55;;;;;;;21.73;10.35;;;20.90;99.90;;;;;;5045145;28;20091;-79
2022/09/09 03:00:27;;;;;;;23.27;9.80;;;20.90;99.90;;;;;;5056096;28;20083;-78
2022/09/09 03:02:56;;;;;;;25.65;10.88;;;21.00;99.90;;;;;;5056420;28;20391;-79
2022/09/09 03:05:22;;;;;;;23.77;10.48;;;21.00;99.90;;;;;;5056123;28;20029;-78
2022/09/09 03:07:49;;;;;;;21.13;10.30;;;21.00;99.90;;;;;;5055180;28;20025;-78
2022/09/09 03:10:15;;;;;;;16.13;9.93;;;21.00;99.90;;;;;;5056129;28;20029;-81
2022/09/09 03:12:41;;;;;;;24.73;9.95;;;21.00;99.90;;;;;;5056331;28;20072;-80
2022/09/09 03:15:07;;;;;;;23.33;9.80;;;21.00;99.90;;;;;;5038156;28;20379;-79
2022/09/09 03:17:34;;;;;;;20.83;9.65;;;21.00;99.90;;;;;;5056096;28;20032;-81
2022/09/09 03:20:01;;;;;;;23.02;10.13;;;21.00;99.90;;;;;;5038299;28;20033;-80
2022/09/09 03:22:26;;;;;;;21.00;10.75;;;21.00;99.90;;;;;;5056020;28;20036;-79
2022/09/09 03:24:52;;;;;;;21.63;10.07;;;21.00;99.90;;;;;;5056057;28;20384;-80
2022/09/09 03:27:19;;;;;;;22.00;9.95;;;21.00;99.90;;;;;;5056269;28;20036;-78
2022/09/09 03:29:45;;;;;;;24.10;10.18;;;21.00;99.90;;;;;;5055376;28;20541;-79
2022/09/09 03:32:12;;;;;;;21.38;10.73;;;21.00;99.90;;;;;;5055694;28;20468;-81
2022/09/09 03:34:40;;;;;;;19.27;10.25;;;21.00;99.90;;;;;;5055601;28;20487;-80
2022/09/09 03:37:06;;;;;;;26.05;13.05;;;20.90;99.90;;;;;;5054781;28;20036;-79
2022/09/09 03:39:32;;;;;;;22.25;11.25;;;20.90;99.90;;;;;;5055234;28;20472;-80
2022/09/09 03:41:58;;;;;;;22.77;10.98;;;20.80;99.90;;;;;;5054519;28;20024;-82
2022/09/09 03:44:23;;;;;;;26.98;11.23;;;20.90;99.90;;;;;;5037302;28;20037;-82
2022/09/09 03:46:49;;;;;;;23.45;11.25;;;20.90;99.90;;;;;;5054404;28;20104;-80
2022/09/09 03:49:15;;;;;;;33.67;12.85;;;20.80;99.90;;;;;;5055304;28;20079;-80
2022/09/09 03:51:41;;;;;;;29.48;12.55;;;20.70;99.90;;;;;;5037183;28;20025;-80
2022/09/09 03:54:09;;;;;;;23.63;11.60;;;20.80;99.90;;;;;;5054348;28;20036;-81
2022/09/09 03:56:36;;;;;;;25.50;12.27;;;20.70;99.90;;;;;;5052226;28;20017;-80
2022/09/09 03:59:03;;;;;;;26.95;12.27;;;20.70;99.90;;;;;;5054448;28;20021;-81
2022/09/09 04:01:29;;;;;;;24.90;12.07;;;20.70;99.90;;;;;;5054623;28;20037;-80
2022/09/09 04:03:57;;;;;;;29.85;12.40;;;20.70;99.90;;;;;;5054525;28;20033;-82
2022/09/09 04:06:24;;;;;;;21.95;12.48;;;20.70;99.90;;;;;;5054400;28;20052;-81
2022/09/09 04:08:52;;;;;;;28.50;12.35;;;20.70;99.90;;;;;;5037037;28;20029;-81
2022/09/09 04:11:18;;;;;;;21.63;11.77;;;20.70;99.90;;;;;;5054401;28;20357;-82
2022/09/09 04:13:44;;;;;;;37.72;12.82;;;20.70;99.90;;;;;;5054926;28;20063;-82
2022/09/09 04:16:13;;;;;;;29.30;12.05;;;20.70;99.90;;;;;;5036718;28;20375;-81
2022/09/09 04:18:39;;;;;;;24.65;12.30;;;20.70;99.90;;;;;;5054153;28;20029;-82
2022/09/09 04:21:07;;;;;;;22.17;12.82;;;20.70;99.90;;;;;;5054474;28;20116;-83
2022/09/09 04:23:34;;;;;;;28.27;11.85;;;20.70;99.90;;;;;;5036438;28;20036;-80
2022/09/09 04:26:01;;;;;;;27.88;12.35;;;20.70;99.90;;;;;;5036178;28;20025;-81
2022/09/09 04:28:33;;;;;;;20.45;12.77;;;20.70;99.90;;;;;;5036329;28;20052;-81
2022/09/09 04:31:17;;;;;;;20.55;12.55;;;20.70;99.90;;;;;;5036017;28;20029;-81
2022/09/09 04:33:43;;;;;;;24.73;12.18;;;20.70;99.90;;;;;;5053526;28;20094;-81
2022/09/09 04:36:09;;;;;;;25.70;12.75;;;20.70;99.90;;;;;;5036147;28;20021;-81
2022/09/09 04:38:35;;;;;;;26.25;12.73;;;20.70;99.90;;;;;;5053610;28;20089;-82
2022/09/09 04:41:01;;;;;;;20.42;13.07;;;20.80;99.90;;;;;;5054167;28;20033;-82
2022/09/09 04:43:30;;;;;;;23.30;12.35;;;20.80;99.90;;;;;;5053060;28;20132;-82
2022/09/09 04:45:56;;;;;;;24.10;12.57;;;20.80;99.90;;;;;;5053440;28;20460;-81
2022/09/09 04:48:24;;;;;;;31.85;14.85;;;20.80;99.90;;;;;;5054069;28;20112;-81
2022/09/09 04:51:01;;;;;;;35.00;14.02;;;20.80;99.90;;;;;;5053401;28;20033;-80
2022/09/09 04:53:27;;;;;;;20.50;12.48;;;20.80;99.90;;;;;;5053290;28;20450;-82
2022/09/09 04:56:14;;;;;;;22.73;13.43;;;20.80;99.90;;;;;;5053706;28;20542;-83
2022/09/09 04:58:43;;;;;;;21.83;13.95;;;20.90;99.90;;;;;;5035743;28;20060;-82
2022/09/09 05:01:15;;;;;;;22.70;13.25;;;20.90;99.90;;;;;;5053397;28;20487;-81
2022/09/09 05:03:41;;;;;;;23.88;13.93;;;20.90;99.90;;;;;;5053479;28;20029;-82
2022/09/09 05:06:09;;;;;;;26.38;14.27;;;20.90;99.90;;;;;;5035582;28;20431;-82
2022/09/09 05:08:39;;;;;;;25.05;13.80;;;21.00;99.90;;;;;;5035327;28;20037;-83
2022/09/09 05:11:20;;;;;;;23.45;14.52;;;21.00;99.90;;;;;;5052242;28;20037;-81
2022/09/09 05:13:46;;;;;;;24.00;13.45;;;21.00;99.90;;;;;;5052563;28;20031;-81
2022/09/09 05:16:13;;;;;;;25.60;13.77;;;21.00;99.90;;;;;;5034290;28;20387;-82
2022/09/09 05:18:40;;;;;;;27.85;13.32;;;21.00;99.90;;;;;;5053342;28;20025;-82
2022/09/09 05:21:07;;;;;;;24.77;14.25;;;21.00;99.90;;;;;;5035124;28;20539;-81
2022/09/09 05:23:36;;;;;;;24.27;14.05;;;21.10;99.90;;;;;;5035415;28;20029;-81
2022/09/09 05:26:03;;;;;;;19.90;12.35;;;21.10;99.90;;;;;;5053009;28;20059;-82
2022/09/09 05:28:30;;;;;;;19.05;12.05;;;21.00;99.90;;;;;;5052846;28;20029;-81
2022/09/09 05:30:57;;;;;;;23.52;13.38;;;21.00;99.90;;;;;;5052287;28;20491;-81
2022/09/09 05:33:25;;;;;;;22.77;13.30;;;21.10;99.90;;;;;;5035706;28;20044;-83
2022/09/09 05:35:59;;;;;;;21.42;13.10;;;21.10;99.90;;;;;;5047835;28;20100;-81
2022/09/09 05:38:25;;;;;;;22.38;13.10;;;21.10;99.90;;;;;;5046974;28;20464;-82
2022/09/09 05:40:52;;;;;;;21.85;13.25;;;21.10;99.90;;;;;;5052859;28;20071;-82
2022/09/09 05:43:19;;;;;;;21.88;13.57;;;21.10;99.90;;;;;;5035120;28;20029;-80
2022/09/09 05:45:47;;;;;;;26.52;13.50;;;21.20;99.90;;;;;;5052284;28;20112;-81
2022/09/09 05:48:15;;;;;;;28.73;14.07;;;21.20;99.90;;;;;;5052152;28;20152;-80
2022/09/09 05:50:41;;;;;;;26.50;13.30;;;21.20;99.90;;;;;;5052042;28;20040;-80
2022/09/09 05:53:06;;;;;;;23.35;13.18;;;21.20;99.90;;;;;;5033543;28;20064;-81
2022/09/09 05:55:32;;;;;;;27.00;12.93;;;21.20;99.90;;;;;;5052649;28;20439;-81
2022/09/09 05:57:58;;;;;;;23.83;14.48;;;21.20;99.90;;;;;;5052456;28;20048;-80
2022/09/09 06:00:23;;;;;;;21.63;13.15;;;21.20;99.90;;;;;;5052564;28;20045;-81
2022/09/09 06:02:53;;;;;;;21.90;13.40;;;21.20;99.90;;;;;;5052711;28;20033;-80
2022/09/09 06:05:20;;;;;;;29.92;14.05;;;21.20;99.90;;;;;;5051238;28;20111;-80
2022/09/09 06:07:46;;;;;;;26.17;13.95;;;21.20;99.90;;;;;;5052072;28;20029;-83
2022/09/09 06:10:15;;;;;;;26.08;14.30;;;21.20;99.90;;;;;;5034421;28;20029;-81
2022/09/09 06:12:40;;;;;;;21.38;14.25;;;21.20;99.90;;;;;;5051628;28;20040;-81
2022/09/09 06:15:08;;;;;;;26.45;15.15;;;21.20;99.90;;;;;;5051857;28;20021;-81
2022/09/09 06:17:34;;;;;;;28.30;15.13;;;21.30;99.90;;;;;;5035080;28;20071;-82
2022/09/09 06:20:00;;;;;;;21.20;14.07;;;21.20;99.90;;;;;;5052876;28;20029;-80
2022/09/09 06:22:26;;;;;;;28.98;15.23;;;21.20;99.90;;;;;;5053468;28;20032;-82
2022/09/09 06:24:53;;;;;;;31.23;15.18;;;21.20;99.90;;;;;;5065490;28;20419;-82
2022/09/09 06:27:19;;;;;;;26.52;14.90;;;21.20;99.90;;;;;;5073278;28;20025;-82
2022/09/09 06:29:44;;;;;;;34.95;17.38;;;21.20;99.90;;;;;;5073606;28;20043;-80
2022/09/09 06:32:10;;;;;;;29.15;16.10;;;21.30;99.90;;;;;;5072818;28;20031;-81
2022/09/09 06:34:36;;;;;;;31.17;15.98;;;21.20;99.90;;;;;;5055342;28;20036;-80
2022/09/09 06:37:02;;;;;;;27.75;16.77;;;21.20;99.90;;;;;;5060445;28;20099;-80
2022/09/09 06:39:28;;;;;;;30.52;16.38;;;21.20;99.90;;;;;;5053107;28;20496;-80
2022/09/09 06:41:54;;;;;;;29.50;17.15;;;21.10;99.90;;;;;;5055623;28;20475;-81
2022/09/09 06:44:19;;;;;;;29.58;16.52;;;21.20;99.90;;;;;;5056477;28;20025;-80
2022/09/09 06:46:49;;;;;;;26.67;16.00;;;21.20;99.90;;;;;;5056865;28;20029;-80
2022/09/09 06:49:15;;;;;;;30.90;15.98;;;21.20;99.90;;;;;;5038967;28;20027;-81
2022/09/09 06:51:43;;;;;;;42.25;16.15;;;21.30;99.90;;;;;;5056863;28;20379;-81
2022/09/09 06:54:11;;;;;;;37.75;17.38;;;21.40;99.90;;;;;;5056755;28;20075;-79
2022/09/09 06:56:41;;;;;;;33.47;16.73;;;21.50;99.90;;;;;;5056317;28;20416;-80
2022/09/09 06:59:09;;;;;;;30.05;16.60;;;21.50;99.90;;;;;;5056879;28;20025;-81
2022/09/09 07:01:46;;;;;;;32.42;16.77;;;21.60;99.90;;;;;;5056309;28;20490;-81
2022/09/09 07:04:13;;;;;;;28.20;16.95;;;21.60;99.90;;;;;;5056727;28;20403;-80
2022/09/09 07:06:44;;;;;;;35.58;16.30;;;21.60;99.90;;;;;;5056133;28;20025;-80
2022/09/09 07:09:12;;;;;;;32.50;15.32;;;21.70;99.90;;;;;;5056451;28;20048;-81
2022/09/09 07:11:42;;;;;;;29.98;15.60;;;;;;;;;;5056406;28;20353;-81
2022/09/09 07:14:09;;;;;;;34.70;18.92;;;21.80;99.90;;;;;;5038229;28;20427;-80
2022/09/09 07:16:37;;;;;;;33.08;16.88;;;21.80;99.90;;;;;;5056532;28;20509;-80
2022/09/09 07:19:03;;;;;;;25.45;15.68;;;21.80;99.90;;;;;;5038516;28;20380;-79
2022/09/09 07:21:30;;;;;;;29.63;16.27;;;21.90;99.90;;;;;;5056271;28;20032;-81
2022/09/09 07:23:57;;;;;;;40.78;17.90;;;22.00;99.90;;;;;;5056123;28;20025;-81
2022/09/09 07:26:25;;;;;;;27.63;16.35;;;22.10;99.90;;;;;;5055955;28;20033;-82
2022/09/09 07:28:51;;;;;;;30.67;15.63;;;22.10;99.90;;;;;;5056131;28;20068;-80
2022/09/09 07:31:23;;;;;;;30.58;17.48;;;22.20;99.90;;;;;;5055180;28;20061;-79
2022/09/09 07:33:49;;;;;;;40.03;17.17;;;22.20;99.90;;;;;;5054652;28;20361;-79
2022/09/09 07:36:24;;;;;;;39.28;25.13;;;22.20;99.90;;;;;;5055157;28;20502;-79
2022/09/09 07:38:52;;;;;;;25.77;17.48;;;22.30;99.90;;;;;;5037171;28;20385;-80
2022/09/09 07:41:21;;;;;;;16.42;11.57;;;22.40;99.90;;;;;;5037005;28;20029;-79
2022/09/09 07:43:49;;;;;;;18.80;9.98;;;22.20;99.90;;;;;;5037424;28;20067;-78
2022/09/09 07:46:16;;;;;;;17.45;9.80;;;22.20;99.90;;;;;;5055618;28;20039;-80
2022/09/09 07:48:51;;;;;;;16.13;8.48;;;22.20;99.90;;;;;;5037598;28;20087;-79
2022/09/09 07:51:28;;;;;;;24.48;10.60;;;22.20;99.90;;;;;;5055419;28;20116;-80
2022/09/09 07:53:57;;;;;;;15.15;8.98;;;22.20;99.90;;;;;;5054965;28;20029;-79
2022/09/09 07:56:23;;;;;;;20.20;9.48;;;22.20;99.90;;;;;;5055374;28;20024;-78
2022/09/09 07:58:51;;;;;;;22.73;10.63;;;22.30;99.90;;;;;;5055450;28;20021;-78
2022/09/09 08:01:20;;;;;;;18.60;10.90;;;22.50;99.90;;;;;;5054828;28;20529;-78
2022/09/09 08:03:47;;;;;;;14.13;10.25;;;22.70;99.90;;;;;;5056017;28;20033;-78
2022/09/09 08:06:13;;;;;;;21.80;15.38;;;22.80;99.90;;;;;;5055304;28;20135;-79
2022/09/09 08:08:41;;;;;;;21.38;12.77;;;23.10;99.90;;;;;;5055052;28;20474;-78
2022/09/09 08:11:16;;;;;;;19.60;13.25;;;23.00;99.90;;;;;;5037082;28;20056;-79
2022/09/09 08:13:43;;;;;;;16.92;11.65;;;23.20;99.90;;;;;;5037342;28;20403;-80
2022/09/09 08:16:12;;;;;;;14.45;11.40;;;23.20;99.90;;;;;;5055308;28;20033;-78
2022/09/09 08:18:39;;;;;;;20.15;11.98;;;;;;;;;;5055056;28;20059;-79
2022/09/09 08:21:23;;;;;;;22.25;13.00;;;23.60;99.90;;;;;;5055204;28;20051;-78
2022/09/09 08:23:52;;;;;;;19.30;11.82;;;23.70;99.90;;;;;;5054941;28;20036;-79
2022/09/09 08:26:26;;;;;;;16.33;12.20;;;;;;;;;;5054664;28;20482;-79
2022/09/09 08:28:53;;;;;;;17.90;12.00;;;;;;;;;;5036904;28;20082;-78
2022/09/09 08:31:19;;;;;;;23.05;12.00;;;;;;;;;;5054795;28;20539;-79
2022/09/09 08:33:45;;;;;;;22.80;14.10;;;;;;;;;;5054462;28;20031;-80
2022/09/09 08:36:15;;;;;;;20.52;14.63;;;;;;;;;;5054769;28;20108;-80
2022/09/09 08:38:42;;;;;;;24.95;13.57;;;;;;;;;;5054698;28;20095;-80
2022/09/09 08:41:16;;;;;;;19.20;13.90;;;;;;;;;;5036678;28;20029;-80
2022/09/09 08:43:44;;;;;;;19.52;12.50;;;;;;;;;;5036647;28;20021;-82
2022/09/09 08:46:19;;;;;;;17.35;12.65;;;;;;;;;;5036473;28;20036;-81
2022/09/09 08:49:02;;;;;;;17.42;11.77;;;;;;;;;;5054673;28;20031;-81
2022/09/09 08:51:30;;;;;;;20.75;11.82;;;;;;;;;;5054121;28;20031;-81
2022/09/09 08:53:58;;;;;;;19.42;12.05;;;;;;;;;;5054410;28;20074;-82
2022/09/09 08:56:25;;;;;;;16.35;13.45;;;;;;;;;;5054905;28;20024;-82
2022/09/09 08:58:52;;;;;;;19.38;13.68;;;;;;;;;;5054205;28;20033;-82
2022/09/09 09:01:27;;;;;;;22.70;14.50;;;;;;;;;;5054016;28;20032;-80
2022/09/09 09:04:13;;;;;;;17.98;13.88;;;;;;;;;;5053625;28;20025;-80
2022/09/09 09:06:45;;;;;;;27.73;14.93;;;;;;;;;;5054121;28;20028;-80
2022/09/09 09:09:30;;;;;;;17.13;13.40;;;;;;;;;;5053792;28;20098;-79
2022/09/09 09:12:02;;;;;;;18.13;14.05;;;;;;;;;;5053606;28;20043;-80
2022/09/09 09:14:34;;;;;;;20.05;13.90;;;;;;;;;;5054061;28;20024;-79
2022/09/09 09:17:06;;;;;;;25.90;15.20;;;;;;;;;;5036161;28;20029;-81
2022/09/09 09:19:34;;;;;;;25.85;15.70;;;;;;;;;;5053756;28;20028;-80
2022/09/09 09:22:00;;;;;;;20.85;17.00;;;;;;;;;;5053822;28;20364;-81
2022/09/09 09:24:40;;;;;;;16.75;14.50;;;;;;;;;;5053634;28;20028;-78
2022/09/09 09:27:19;;;;;;;16.23;12.75;;;;;;;;;;5053494;28;20029;-79
2022/09/09 09:29:46;;;;;;;22.02;13.85;;;;;;;;;;5036067;28;20120;-78
2022/09/09 09:32:17;;;;;;;14.07;12.63;;;;;;;;;;5053343;28;20020;-79
2022/09/09 09:34:48;;;;;;;15.18;13.60;;;;;;;;;;5053896;28;20043;-79
2022/09/09 09:37:26;;;;;;;20.67;14.25;;;;;;;;;;5053758;28;20074;-79
2022/09/09 09:39:52;;;;;;;21.48;13.85;;;;;;;;;;5035460;28;20178;-81
2022/09/09 09:42:18;;;;;;;21.30;13.70;;;;;;;;;;5053654;28;20099;-81
2022/09/09 09:44:45;;;;;;;15.60;13.80;;;;;;;;;;5053750;28;20032;-80
2022/09/09 09:47:15;;;;;;;18.02;13.85;;;;;;;;;;5053769;28;20031;-80
2022/09/09 09:49:53;;;;;;;14.65;12.60;;;;;;;;;;5035695;28;20068;-81
2022/09/09 09:52:24;;;;;;;15.15;12.30;;;;;;;;;;5035818;28;20472;-79
2022/09/09 09:54:52;;;;;;;16.70;12.10;;;;;;;;;;5052899;28;20487;-80
2022/09/09 09:57:18;;;;;;;17.75;12.70;;;;;;;;;;5052844;28;20051;-79
2022/09/09 09:59:46;;;;;;;16.80;12.88;;;;;;;;;;5052727;28;20380;-80
2022/09/09 10:02:15;;;;;;;16.48;13.13;;;;;;;;;;5035504;28;20521;-79
2022/09/09 10:04:41;;;;;;;17.98;13.52;;;;;;;;;;5035488;28;20423;-78
2022/09/09 10:07:18;;;;;;;20.63;15.98;;;;;;;;;;5035592;28;20025;-80
2022/09/09 10:09:44;;;;;;;14.73;12.18;;;;;;;;;;5034567;28;20032;-79
2022/09/09 10:12:20;;;;;;;15.93;11.93;;;;;;;;;;5052732;28;20095;-80
2022/09/09 10:14:55;;;;;;;19.48;15.85;;;;;;;;;;5052890;28;20025;-81
2022/09/09 10:17:31;;;;;;;21.95;15.07;;;;;;;;;;5055551;28;20029;-79
2022/09/09 10:20:16;;;;;;;17.48;13.52;;;;;;;;;;5056720;28;20021;-78
2022/09/09 10:22:45;;;;;;;16.38;14.38;;;;;;;;;;5056423;28;20475;-80
2022/09/09 10:25:20;;;;;;;22.80;14.48;;;;;;;;;;5055249;28;20037;-81
2022/09/09 10:28:15;;;;;;;18.20;13.00;;;;;;;;;;5053619;28;20036;-79
2022/09/09 10:30:49;;;;;;;18.77;13.57;;;;;;;;;;5052229;28;20025;-78
2022/09/09 10:33:25;;;;;;;23.48;14.27;;;;;;;;;;5036592;28;20033;-78
2022/09/09 10:36:13;;;;;;;16.90;13.45;;;;;;;;;;5054786;28;20379;-78
2022/09/09 10:38:45;;;;;;;14.23;12.77;;;;;;;;;;5051940;28;20048;-78
2022/09/09 10:41:14;;;;;;;15.93;13.25;;;;;;;;;;5054909;28;20021;-80
2022/09/09 10:43:51;;;;;;;13.98;12.57;;;;;;;;;;5052229;28;20021;-78
2022/09/09 10:46:35;;;;;;;17.50;10.55;;;;;;;;;;5054159;28;20100;-79
2022/09/09 10:49:12;;;;;;;14.85;11.73;;;;;;;;;;5052304;28;20067;-78
2022/09/09 10:51:47;;;;;;;15.93;13.45;;;;;;;;;;5054726;28;20017;-78
2022/09/09 10:54:17;;;;;;;15.18;12.18;;;;;;;;;;5036312;28;20478;-79
2022/09/09 10:56:44;;;;;;;17.65;12.30;;;;;;;;;;5052283;28;20075;-79
2022/09/09 10:59:11;;;;;;;26.27;12.85;;;;;;;;;;5054920;28;20456;-80
2022/09/09 11:01:37;;;;;;;16.13;11.95;;;;;;;;;;5054075;28;20033;-79
2022/09/09 11:04:16;;;;;;;13.50;11.25;;;;;;;;;;5054595;28;20021;-79
2022/09/09 11:06:46;;;;;;;19.63;11.27;;;;;;;;;;5052466;28;20052;-78
2022/09/09 11:09:17;;;;;;;15.60;11.02;;;;;;;;;;5055194;28;20017;-79
2022/09/09 11:11:46;;;;;;;17.00;11.57;;;;;;;;;;5052909;28;20560;-78
2022/09/09 11:14:12;;;;;;;14.80;11.57;;;;;;;;;;5054913;28;20036;-79
2022/09/09 11:16:45;;;;;;;22.17;11.52;;;;;;;;;;5054609;28;20013;-78
2022/09/09 11:19:11;;;;;;;14.38;10.95;;;;;;;;;;5036828;28;20017;-78
2022/09/09 11:21:44;;;;;;;15.00;10.73;;;;;;;;;;5036168;28;20033;-78
2022/09/09 11:24:16;;;;;;;20.00;11.13;;;;;;;;;;5054663;28;20024;-80
2022/09/09 11:26:47;;;;;;;15.85;10.52;;;;;;;;;;5052181;28;20082;-78
2022/09/09 11:29:17;;;;;;;40.67;12.55;;;;;;;;;;5053837;28;20013;-77
2022/09/09 11:32:01;;;;;;;17.05;9.85;;;;;;;;;;5052282;28;20376;-79
2022/09/09 11:34:33;;;;;;;23.20;12.27;;;;;;;;;;5052455;28;20015;-78
2022/09/09 11:37:10;;;;;;;552.88;47.03;;;;;;;;;;5035889;28;20068;-79
2022/09/09 11:39:39;;;;;;;40.10;11.45;;;;;;;;;;5053829;28;20041;-79
2022/09/09 11:42:16;;;;;;;56.00;11.35;;;;;;;;;;5054286;28;20075;-78
2022/09/09 11:44:42;;;;;;;22.80;11.02;;;;;;;;;;5036340;28;20094;-78
2022/09/09 11:47:31;;;;;;;14.70;11.05;;;;;;;;;;5054452;28;20047;-78
2022/09/09 11:50:16;;;;;;;13.38;10.65;;;;;;;;;;5053294;28;20132;-79
2022/09/09 11:52:45;;;;;;;38.58;11.30;;;;;;;;;;5035124;28;20033;-79
2022/09/09 11:55:29;;;;;;;11.63;9.60;;;;;;;;;;5054290;28;20043;-78
2022/09/09 11:58:02;;;;;;;14.77;10.18;;;;;;;;;;5053174;28;20100;-79
2022/09/09 12:00:41;;;;;;;15.50;9.73;;;;;;;;;;5035637;28;20092;-78
2022/09/09 12:03:27;;;;;;;15.00;10.00;;;;;;;;;;5033625;28;20108;-77
2022/09/09 12:05:54;;;;;;;15.73;10.60;;;;;;;;;;5035090;28;20611;-78
2022/09/09 12:08:25;;;;;;;15.65;10.18;;;;;;;;;;5036878;28;20021;-79
2022/09/09 12:10:59;;;;;;;9.98;9.00;;;;;;;;;;5036994;28;20475;-76
2022/09/09 12:13:26;;;;;;;16.25;9.85;;;;;;;;;;5055167;28;20031;-80
2022/09/09 12:15:56;;;;;;;13.25;9.77;;;;;;;;;;5054965;28;20032;-80
2022/09/09 12:18:25;;;;;;;14.75;9.48;;;;;;;;;;5054082;28;20487;-78
2022/09/09 12:21:03;;;;;;;14.73;10.52;;;;;;;;;;5053418;28;20017;-81
2022/09/09 12:23:58;;;;;;;12.18;9.60;;;;;;;;;;5053258;28;20024;-77
2022/09/09 12:26:24;;;;;;;21.65;10.18;;;;;;;;;;5032868;28;20036;-80
2022/09/09 12:29:00;;;;;;;16.73;10.40;;;;;;;;;;5034767;28;20363;-78
2022/09/09 12:31:34;;;;;;;21.95;10.98;;;;;;;;;;5051933;28;20027;-77
2022/09/09 12:34:24;;;;;;;12.60;11.07;;;;;;;;;;5052514;28;20017;-78
2022/09/09 12:36:54;;;;;;;63.00;14.48;;;;;;;;;;5052172;28;20423;-79
2022/09/09 12:39:27;;;;;;;19.42;11.27;;;;;;;;;;5052680;28;20045;-78
2022/09/09 12:41:56;;;;;;;13.30;11.23;;;;;;;;;;5052483;28;20464;-77
2022/09/09 12:44:22;;;;;;;11.80;10.43;;;;;;;;;;5051120;28;20021;-77
2022/09/09 12:46:49;;;;;;;13.18;10.75;;;;;;;;;;5052039;28;20017;-82
2022/09/09 12:49:41;;;;;;;12.00;10.80;;;;;;;;;;5053589;28;20079;-80
2022/09/09 12:52:21;;;;;;;14.20;11.68;;;;;;;;;;5049342;28;20045;-78
2022/09/09 12:54:53;;;;;;;16.10;11.30;;;;;;;;;;5034534;28;20032;-79
2022/09/09 12:57:20;;;;;;;13.13;11.73;;;;;;;;;;5053236;28;20357;-79
2022/09/09 12:59:47;;;;;;;14.93;11.82;;;;;;;;;;5052947;28;20017;-77
2022/09/09 13:02:26;;;;;;;13.93;12.05;;;;;;;;;;5053766;28;20040;-78
2022/09/09 13:04:53;;;;;;;13.18;10.88;;;;;;;;;;5053786;28;20025;-79
2022/09/09 13:07:21;;;;;;;14.82;10.80;;;;;;;;;;5053663;28;20029;-78
2022/09/09 13:09:48;;;;;;;15.80;11.32;;;;;;;;;;5053453;28;20080;-78
2022/09/09 13:12:20;;;;;;;16.02;10.30;;;;;;;;;;5054309;28;20024;-76
2022/09/09 13:14:48;;;;;;;13.02;9.95;;;;;;;;;;5036085;28;20021;-77
2022/09/09 13:17:31;;;;;;;12.18;10.77;;;;;;;;;;5053549;28;20013;-77
2022/09/09 13:19:58;;;;;;;15.57;11.00;;;;;;;;;;5052987;28;20125;-77
2022/09/09 13:22:30;;;;;;;19.23;15.40;;;;;;;;;;5053850;28;20108;-78
2022/09/09 13:25:05;;;;;;;21.20;14.35;;;;;;;;;;5053159;28;20013;-76
2022/09/09 13:27:33;;;;;;;17.45;11.00;;;;;;;;;;5053156;28;20025;-77
2022/09/09 13:30:00;;;;;;;14.68;10.18;;;;;;;;;;5053481;28;20116;-77